sensor_id;sensor_type;location;lat;lon;timestamp;P1;durP1;ratioP1;P2;durP2;ratioP2
46000;SDS011;72226;48.272;11.180;2023-08-17T00:01:53;6.70;;;5.70;;
46000;SDS011;72226;48.272;11.180;2023-08-17T00:04:19;11.65;;;6.43;;
46000;SDS011;72226;48.272;11.180;2023-08-17T00:06:44;6.47;;;5.88;;
46000;SDS011;72226;48.272;11.180;2023-08-17T00:09:10;5.80;;;5.30;;
46000;SDS011;72226;48.272;11.180;2023-08-17T00:11:37;6.60;;;6.00;;
46000;SDS011;72226;48.272;11.180;2023-08-17T00:14:03;9.23;;;5.38;;
46000;SDS011;72226;48.272;11.180;2023-08-17T00:16:29;8.45;;;6.63;;
46000;SDS011;72226;48.272;11.180;2023-08-17T00:18:54;7.00;;;6.40;;
46000;SDS011;72226;48.272;11.180;2023-08-17T00:21:19;7.50;;;6.78;;
46000;SDS011;72226;48.272;11.180;2023-08-17T00:23:45;6.65;;;5.90;;
46000;SDS011;72226;48.272;11.180;2023-08-17T00:26:10;8.60;;;7.75;;
46000;SDS011;72226;48.272;11.180;2023-08-17T00:28:36;7.90;;;6.78;;
46000;SDS011;72226;48.272;11.180;2023-08-17T00:31:02;10.07;;;7.47;;
46000;SDS011;72226;48.272;11.180;2023-08-17T00:33:27;9.20;;;6.57;;
46000;SDS011;72226;48.272;11.180;2023-08-17T00:35:53;7.35;;;6.65;;
46000;SDS011;72226;48.272;11.180;2023-08-17T00:38:18;7.72;;;7.03;;
46000;SDS011;72226;48.272;11.180;2023-08-17T00:40:44;6.70;;;5.88;;
46000;SDS011;72226;48.272;11.180;2023-08-17T00:43:09;6.10;;;5.50;;
46000;SDS011;72226;48.272;11.180;2023-08-17T00:45:34;8.05;;;6.07;;
46000;SDS011;72226;48.272;11.180;2023-08-17T00:48:00;7.57;;;6.20;;
46000;SDS011;72226;48.272;11.180;2023-08-17T00:50:26;7.55;;;5.68;;
46000;SDS011;72226;48.272;11.180;2023-08-17T00:52:53;6.53;;;5.93;;
46000;SDS011;72226;48.272;11.180;2023-08-17T00:55:19;5.55;;;5.15;;
46000;SDS011;72226;48.272;11.180;2023-08-17T00:57:45;6.30;;;5.70;;
46000;SDS011;72226;48.272;11.180;2023-08-17T01:00:12;6.38;;;5.68;;
46000;SDS011;72226;48.272;11.180;2023-08-17T01:02:42;5.70;;;5.20;;
46000;SDS011;72226;48.272;11.180;2023-08-17T01:05:08;7.57;;;5.75;;
46000;SDS011;72226;48.272;11.180;2023-08-17T01:07:34;6.53;;;5.82;;
46000;SDS011;72226;48.272;11.180;2023-08-17T01:09:59;6.43;;;5.82;;
46000;SDS011;72226;48.272;11.180;2023-08-17T01:12:30;7.75;;;7.05;;
46000;SDS011;72226;48.272;11.180;2023-08-17T01:15:10;7.05;;;6.35;;
46000;SDS011;72226;48.272;11.180;2023-08-17T01:20:08;8.63;;;5.63;;
46000;SDS011;72226;48.272;11.180;2023-08-17T01:22:37;7.05;;;6.45;;
46000;SDS011;72226;48.272;11.180;2023-08-17T01:25:05;6.53;;;5.93;;
46000;SDS011;72226;48.272;11.180;2023-08-17T01:27:33;8.10;;;5.65;;
46000;SDS011;72226;48.272;11.180;2023-08-17T01:30:02;8.07;;;6.30;;
46000;SDS011;72226;48.272;11.180;2023-08-17T01:32:30;6.38;;;5.50;;
46000;SDS011;72226;48.272;11.180;2023-08-17T01:35:09;6.20;;;5.65;;
46000;SDS011;72226;48.272;11.180;2023-08-17T01:37:41;6.97;;;4.57;;
46000;SDS011;72226;48.272;11.180;2023-08-17T01:40:07;6.53;;;5.93;;
46000;SDS011;72226;48.272;11.180;2023-08-17T01:42:34;5.50;;;5.00;;
46000;SDS011;72226;48.272;11.180;2023-08-17T01:45:01;5.50;;;5.03;;
46000;SDS011;72226;48.272;11.180;2023-08-17T01:47:26;6.70;;;5.72;;
46000;SDS011;72226;48.272;11.180;2023-08-17T01:49:52;5.78;;;5.28;;
46000;SDS011;72226;48.272;11.180;2023-08-17T01:52:17;7.43;;;6.28;;
46000;SDS011;72226;48.272;11.180;2023-08-17T01:54:43;7.45;;;5.95;;
46000;SDS011;72226;48.272;11.180;2023-08-17T01:57:08;6.93;;;6.32;;
46000;SDS011;72226;48.272;11.180;2023-08-17T01:59:33;6.78;;;6.18;;
46000;SDS011;72226;48.272;11.180;2023-08-17T02:01:59;7.93;;;6.50;;
46000;SDS011;72226;48.272;11.180;2023-08-17T02:04:24;6.78;;;6.18;;
46000;SDS011;72226;48.272;11.180;2023-08-17T02:06:50;6.88;;;6.22;;
46000;SDS011;72226;48.272;11.180;2023-08-17T02:09:15;6.30;;;5.70;;
46000;SDS011;72226;48.272;11.180;2023-08-17T02:11:41;6.95;;;5.07;;
46000;SDS011;72226;48.272;11.180;2023-08-17T02:14:06;6.85;;;6.25;;
46000;SDS011;72226;48.272;11.180;2023-08-17T02:16:32;6.15;;;5.63;;
46000;SDS011;72226;48.272;11.180;2023-08-17T02:18:57;6.65;;;5.93;;
46000;SDS011;72226;48.272;11.180;2023-08-17T02:21:22;6.10;;;5.53;;
46000;SDS011;72226;48.272;11.180;2023-08-17T02:23:48;5.55;;;4.97;;
46000;SDS011;72226;48.272;11.180;2023-08-17T02:26:13;9.57;;;6.28;;
46000;SDS011;72226;48.272;11.180;2023-08-17T02:28:38;8.20;;;6.32;;
46000;SDS011;72226;48.272;11.180;2023-08-17T02:31:04;8.30;;;6.30;;
46000;SDS011;72226;48.272;11.180;2023-08-17T02:33:31;9.82;;;8.45;;
46000;SDS011;72226;48.272;11.180;2023-08-17T02:35:58;11.73;;;7.15;;
46000;SDS011;72226;48.272;11.180;2023-08-17T02:38:23;9.43;;;7.70;;
46000;SDS011;72226;48.272;11.180;2023-08-17T02:40:49;8.23;;;7.43;;
46000;SDS011;72226;48.272;11.180;2023-08-17T02:43:15;9.20;;;8.30;;
46000;SDS011;72226;48.272;11.180;2023-08-17T02:45:40;6.75;;;5.95;;
46000;SDS011;72226;48.272;11.180;2023-08-17T02:48:05;7.88;;;5.45;;
46000;SDS011;72226;48.272;11.180;2023-08-17T02:50:31;6.63;;;5.80;;
46000;SDS011;72226;48.272;11.180;2023-08-17T02:52:56;6.50;;;5.90;;
46000;SDS011;72226;48.272;11.180;2023-08-17T02:55:22;6.20;;;5.43;;
46000;SDS011;72226;48.272;11.180;2023-08-17T02:57:47;7.55;;;6.82;;
46000;SDS011;72226;48.272;11.180;2023-08-17T03:00:13;6.47;;;5.88;;
46000;SDS011;72226;48.272;11.180;2023-08-17T03:02:38;6.65;;;5.95;;
46000;SDS011;72226;48.272;11.180;2023-08-17T03:05:04;6.93;;;6.22;;
46000;SDS011;72226;48.272;11.180;2023-08-17T03:07:30;8.60;;;6.13;;
46000;SDS011;72226;48.272;11.180;2023-08-17T03:09:55;7.25;;;6.47;;
46000;SDS011;72226;48.272;11.180;2023-08-17T03:12:20;8.20;;;6.25;;
46000;SDS011;72226;48.272;11.180;2023-08-17T03:14:46;9.23;;;6.28;;
46000;SDS011;72226;48.272;11.180;2023-08-17T03:17:11;5.57;;;5.07;;
46000;SDS011;72226;48.272;11.180;2023-08-17T03:19:36;6.85;;;6.10;;
46000;SDS011;72226;48.272;11.180;2023-08-17T03:22:02;5.78;;;5.28;;
46000;SDS011;72226;48.272;11.180;2023-08-17T03:24:27;7.55;;;5.95;;
46000;SDS011;72226;48.272;11.180;2023-08-17T03:26:53;5.85;;;5.18;;
46000;SDS011;72226;48.272;11.180;2023-08-17T03:29:18;10.73;;;5.50;;
46000;SDS011;72226;48.272;11.180;2023-08-17T03:31:43;7.55;;;5.88;;
46000;SDS011;72226;48.272;11.180;2023-08-17T03:34:09;6.90;;;6.30;;
46000;SDS011;72226;48.272;11.180;2023-08-17T03:36:34;7.45;;;6.45;;
46000;SDS011;72226;48.272;11.180;2023-08-17T03:38:59;6.10;;;5.60;;
46000;SDS011;72226;48.272;11.180;2023-08-17T03:41:25;10.75;;;7.03;;
46000;SDS011;72226;48.272;11.180;2023-08-17T03:43:50;10.50;;;6.45;;
46000;SDS011;72226;48.272;11.180;2023-08-17T03:46:15;6.85;;;6.15;;
46000;SDS011;72226;48.272;11.180;2023-08-17T03:48:41;8.18;;;6.85;;
46000;SDS011;72226;48.272;11.180;2023-08-17T03:51:06;7.60;;;6.90;;
46000;SDS011;72226;48.272;11.180;2023-08-17T03:53:32;6.95;;;6.35;;
46000;SDS011;72226;48.272;11.180;2023-08-17T03:55:57;7.38;;;6.60;;
46000;SDS011;72226;48.272;11.180;2023-08-17T03:58:23;7.68;;;6.93;;
46000;SDS011;72226;48.272;11.180;2023-08-17T04:00:51;10.32;;;7.32;;
46000;SDS011;72226;48.272;11.180;2023-08-17T04:03:18;7.05;;;6.40;;
46000;SDS011;72226;48.272;11.180;2023-08-17T04:05:44;6.72;;;6.03;;
46000;SDS011;72226;48.272;11.180;2023-08-17T04:08:09;8.15;;;6.85;;
46000;SDS011;72226;48.272;11.180;2023-08-17T04:10:35;7.10;;;6.50;;
46000;SDS011;72226;48.272;11.180;2023-08-17T04:13:00;8.43;;;7.55;;
46000;SDS011;72226;48.272;11.180;2023-08-17T04:15:25;9.65;;;8.77;;
46000;SDS011;72226;48.272;11.180;2023-08-17T04:17:51;7.63;;;7.03;;
46000;SDS011;72226;48.272;11.180;2023-08-17T04:20:16;8.05;;;6.50;;
46000;SDS011;72226;48.272;11.180;2023-08-17T04:22:43;7.78;;;7.00;;
46000;SDS011;72226;48.272;11.180;2023-08-17T04:25:08;8.32;;;7.10;;
46000;SDS011;72226;48.272;11.180;2023-08-17T04:27:34;9.30;;;7.93;;
46000;SDS011;72226;48.272;11.180;2023-08-17T04:30:00;8.70;;;7.00;;
46000;SDS011;72226;48.272;11.180;2023-08-17T04:32:25;11.75;;;8.68;;
46000;SDS011;72226;48.272;11.180;2023-08-17T04:34:51;7.93;;;7.15;;
46000;SDS011;72226;48.272;11.180;2023-08-17T04:37:16;8.40;;;7.60;;
46000;SDS011;72226;48.272;11.180;2023-08-17T04:39:41;11.52;;;8.05;;
46000;SDS011;72226;48.272;11.180;2023-08-17T04:42:08;9.52;;;7.85;;
46000;SDS011;72226;48.272;11.180;2023-08-17T04:44:34;10.27;;;8.05;;
46000;SDS011;72226;48.272;11.180;2023-08-17T04:47:00;8.90;;;8.02;;
46000;SDS011;72226;48.272;11.180;2023-08-17T04:49:25;9.50;;;7.07;;
46000;SDS011;72226;48.272;11.180;2023-08-17T04:51:51;9.13;;;8.23;;
46000;SDS011;72226;48.272;11.180;2023-08-17T04:54:17;9.38;;;7.50;;
46000;SDS011;72226;48.272;11.180;2023-08-17T04:56:42;11.57;;;7.72;;
46000;SDS011;72226;48.272;11.180;2023-08-17T04:59:08;9.63;;;8.55;;
46000;SDS011;72226;48.272;11.180;2023-08-17T05:01:33;11.80;;;10.60;;
46000;SDS011;72226;48.272;11.180;2023-08-17T05:03:59;10.13;;;9.10;;
46000;SDS011;72226;48.272;11.180;2023-08-17T05:06:24;12.10;;;9.60;;
46000;SDS011;72226;48.272;11.180;2023-08-17T05:08:52;10.43;;;9.43;;
46000;SDS011;72226;48.272;11.180;2023-08-17T05:11:18;10.95;;;9.82;;
46000;SDS011;72226;48.272;11.180;2023-08-17T05:13:43;10.50;;;9.43;;
46000;SDS011;72226;48.272;11.180;2023-08-17T05:16:08;11.23;;;10.32;;
46000;SDS011;72226;48.272;11.180;2023-08-17T05:18:34;11.55;;;10.35;;
46000;SDS011;72226;48.272;11.180;2023-08-17T05:20:59;11.85;;;10.70;;
46000;SDS011;72226;48.272;11.180;2023-08-17T05:23:25;11.93;;;9.68;;
46000;SDS011;72226;48.272;11.180;2023-08-17T05:25:51;13.60;;;9.57;;
46000;SDS011;72226;48.272;11.180;2023-08-17T05:28:16;11.25;;;9.02;;
46000;SDS011;72226;48.272;11.180;2023-08-17T05:30:41;11.38;;;10.38;;
46000;SDS011;72226;48.272;11.180;2023-08-17T05:33:07;8.88;;;8.07;;
46000;SDS011;72226;48.272;11.180;2023-08-17T05:35:32;10.02;;;9.13;;
46000;SDS011;72226;48.272;11.180;2023-08-17T05:37:57;14.02;;;9.73;;
46000;SDS011;72226;48.272;11.180;2023-08-17T05:40:23;10.23;;;9.32;;
46000;SDS011;72226;48.272;11.180;2023-08-17T05:42:48;9.93;;;9.02;;
46000;SDS011;72226;48.272;11.180;2023-08-17T05:45:14;11.70;;;9.52;;
46000;SDS011;72226;48.272;11.180;2023-08-17T05:47:39;10.20;;;9.20;;
46000;SDS011;72226;48.272;11.180;2023-08-17T05:50:05;10.73;;;9.70;;
46000;SDS011;72226;48.272;11.180;2023-08-17T05:52:31;11.32;;;9.30;;
46000;SDS011;72226;48.272;11.180;2023-08-17T05:54:56;10.77;;;9.77;;
46000;SDS011;72226;48.272;11.180;2023-08-17T05:57:22;13.23;;;11.50;;
46000;SDS011;72226;48.272;11.180;2023-08-17T05:59:47;12.82;;;11.50;;
46000;SDS011;72226;48.272;11.180;2023-08-17T06:02:13;12.80;;;11.32;;
46000;SDS011;72226;48.272;11.180;2023-08-17T06:04:38;14.48;;;11.07;;
46000;SDS011;72226;48.272;11.180;2023-08-17T06:07:04;14.70;;;11.80;;
46000;SDS011;72226;48.272;11.180;2023-08-17T06:09:29;14.27;;;12.98;;
46000;SDS011;72226;48.272;11.180;2023-08-17T06:11:54;13.98;;;12.50;;
46000;SDS011;72226;48.272;11.180;2023-08-17T06:14:20;13.68;;;12.38;;
46000;SDS011;72226;48.272;11.180;2023-08-17T06:16:45;14.52;;;13.23;;
46000;SDS011;72226;48.272;11.180;2023-08-17T06:19:11;15.98;;;14.32;;
46000;SDS011;72226;48.272;11.180;2023-08-17T06:21:36;14.65;;;13.20;;
46000;SDS011;72226;48.272;11.180;2023-08-17T06:24:01;14.68;;;13.13;;
46000;SDS011;72226;48.272;11.180;2023-08-17T06:26:27;17.40;;;15.43;;
46000;SDS011;72226;48.272;11.180;2023-08-17T06:28:52;14.50;;;13.15;;
46000;SDS011;72226;48.272;11.180;2023-08-17T06:31:18;12.98;;;11.68;;
46000;SDS011;72226;48.272;11.180;2023-08-17T06:33:43;14.48;;;12.98;;
46000;SDS011;72226;48.272;11.180;2023-08-17T06:36:08;14.43;;;13.02;;
46000;SDS011;72226;48.272;11.180;2023-08-17T06:38:34;12.90;;;11.60;;
46000;SDS011;72226;48.272;11.180;2023-08-17T06:40:59;16.98;;;12.15;;
46000;SDS011;72226;48.272;11.180;2023-08-17T06:43:25;12.43;;;11.00;;
46000;SDS011;72226;48.272;11.180;2023-08-17T06:45:50;10.30;;;9.43;;
46000;SDS011;72226;48.272;11.180;2023-08-17T06:48:15;10.02;;;9.07;;
46000;SDS011;72226;48.272;11.180;2023-08-17T06:50:41;10.00;;;9.10;;
46000;SDS011;72226;48.272;11.180;2023-08-17T06:53:06;12.02;;;10.50;;
46000;SDS011;72226;48.272;11.180;2023-08-17T06:55:32;9.75;;;8.85;;
46000;SDS011;72226;48.272;11.180;2023-08-17T06:57:57;13.93;;;9.70;;
46000;SDS011;72226;48.272;11.180;2023-08-17T07:00:23;10.68;;;9.57;;
46000;SDS011;72226;48.272;11.180;2023-08-17T07:02:48;10.13;;;9.23;;
46000;SDS011;72226;48.272;11.180;2023-08-17T07:05:14;9.23;;;8.43;;
46000;SDS011;72226;48.272;11.180;2023-08-17T07:07:40;10.55;;;9.35;;
46000;SDS011;72226;48.272;11.180;2023-08-17T07:10:05;10.52;;;9.02;;
46000;SDS011;72226;48.272;11.180;2023-08-17T07:12:32;10.20;;;9.20;;
46000;SDS011;72226;48.272;11.180;2023-08-17T07:14:57;8.93;;;8.25;;
46000;SDS011;72226;48.272;11.180;2023-08-17T07:17:23;12.68;;;10.50;;
46000;SDS011;72226;48.272;11.180;2023-08-17T07:19:48;9.63;;;8.73;;
46000;SDS011;72226;48.272;11.180;2023-08-17T07:22:13;9.05;;;8.30;;
46000;SDS011;72226;48.272;11.180;2023-08-17T07:24:39;10.95;;;9.90;;
46000;SDS011;72226;48.272;11.180;2023-08-17T07:27:04;8.95;;;7.95;;
46000;SDS011;72226;48.272;11.180;2023-08-17T07:29:30;10.27;;;9.27;;
46000;SDS011;72226;48.272;11.180;2023-08-17T07:31:55;9.43;;;8.48;;
46000;SDS011;72226;48.272;11.180;2023-08-17T07:34:23;9.27;;;8.50;;
46000;SDS011;72226;48.272;11.180;2023-08-17T07:36:49;9.20;;;8.40;;
46000;SDS011;72226;48.272;11.180;2023-08-17T07:39:17;9.48;;;8.68;;
46000;SDS011;72226;48.272;11.180;2023-08-17T07:41:43;10.38;;;9.38;;
46000;SDS011;72226;48.272;11.180;2023-08-17T07:44:18;8.73;;;7.88;;
46000;SDS011;72226;48.272;11.180;2023-08-17T07:46:44;9.43;;;8.50;;
46000;SDS011;72226;48.272;11.180;2023-08-17T07:49:18;10.35;;;9.45;;
46000;SDS011;72226;48.272;11.180;2023-08-17T07:51:45;8.10;;;7.30;;
46000;SDS011;72226;48.272;11.180;2023-08-17T07:54:11;8.77;;;7.97;;
46000;SDS011;72226;48.272;11.180;2023-08-17T07:56:36;9.85;;;8.07;;
46000;SDS011;72226;48.272;11.180;2023-08-17T07:59:05;8.52;;;7.78;;
46000;SDS011;72226;48.272;11.180;2023-08-17T08:01:30;8.75;;;7.95;;
46000;SDS011;72226;48.272;11.180;2023-08-17T08:03:56;10.98;;;9.98;;
46000;SDS011;72226;48.272;11.180;2023-08-17T08:06:21;9.32;;;8.43;;
46000;SDS011;72226;48.272;11.180;2023-08-17T08:08:48;8.40;;;7.63;;
46000;SDS011;72226;48.272;11.180;2023-08-17T08:11:13;9.20;;;7.45;;
46000;SDS011;72226;48.272;11.180;2023-08-17T08:13:38;8.07;;;7.38;;
46000;SDS011;72226;48.272;11.180;2023-08-17T08:16:13;9.57;;;8.20;;
46000;SDS011;72226;48.272;11.180;2023-08-17T08:18:38;9.80;;;8.85;;
46000;SDS011;72226;48.272;11.180;2023-08-17T08:21:04;8.57;;;7.78;;
46000;SDS011;72226;48.272;11.180;2023-08-17T08:23:35;9.82;;;8.95;;
46000;SDS011;72226;48.272;11.180;2023-08-17T08:26:00;9.60;;;8.77;;
46000;SDS011;72226;48.272;11.180;2023-08-17T08:28:26;8.32;;;7.60;;
46000;SDS011;72226;48.272;11.180;2023-08-17T08:30:51;9.40;;;8.07;;
46000;SDS011;72226;48.272;11.180;2023-08-17T08:33:17;8.25;;;6.90;;
46000;SDS011;72226;48.272;11.180;2023-08-17T08:35:43;8.13;;;7.32;;
46000;SDS011;72226;48.272;11.180;2023-08-17T08:38:08;13.63;;;8.02;;
46000;SDS011;72226;48.272;11.180;2023-08-17T08:40:33;9.10;;;7.85;;
46000;SDS011;72226;48.272;11.180;2023-08-17T08:43:02;8.45;;;7.65;;
46000;SDS011;72226;48.272;11.180;2023-08-17T08:45:28;9.55;;;8.75;;
46000;SDS011;72226;48.272;11.180;2023-08-17T08:47:55;8.73;;;7.93;;
46000;SDS011;72226;48.272;11.180;2023-08-17T08:50:22;8.52;;;7.88;;
46000;SDS011;72226;48.272;11.180;2023-08-17T08:52:58;7.78;;;6.90;;
46000;SDS011;72226;48.272;11.180;2023-08-17T08:55:26;15.82;;;14.25;;
46000;SDS011;72226;48.272;11.180;2023-08-17T08:57:54;10.35;;;8.30;;
46000;SDS011;72226;48.272;11.180;2023-08-17T09:00:21;9.32;;;8.52;;
46000;SDS011;72226;48.272;11.180;2023-08-17T09:02:47;10.10;;;7.00;;
46000;SDS011;72226;48.272;11.180;2023-08-17T09:05:14;8.30;;;7.50;;
46000;SDS011;72226;48.272;11.180;2023-08-17T09:07:40;9.02;;;6.50;;
46000;SDS011;72226;48.272;11.180;2023-08-17T09:10:08;7.68;;;6.85;;
46000;SDS011;72226;48.272;11.180;2023-08-17T09:12:34;8.68;;;7.88;;
46000;SDS011;72226;48.272;11.180;2023-08-17T09:15:00;8.80;;;8.10;;
46000;SDS011;72226;48.272;11.180;2023-08-17T09:17:26;8.13;;;7.43;;
46000;SDS011;72226;48.272;11.180;2023-08-17T09:19:52;10.52;;;8.50;;
46000;SDS011;72226;48.272;11.180;2023-08-17T09:22:37;7.50;;;6.85;;
46000;SDS011;72226;48.272;11.180;2023-08-17T09:25:05;8.88;;;8.07;;
46000;SDS011;72226;48.272;11.180;2023-08-17T09:27:33;9.40;;;7.30;;
46000;SDS011;72226;48.272;11.180;2023-08-17T09:30:03;13.10;;;7.88;;
46000;SDS011;72226;48.272;11.180;2023-08-17T09:32:34;7.68;;;6.93;;
46000;SDS011;72226;48.272;11.180;2023-08-17T09:35:02;8.43;;;7.68;;
46000;SDS011;72226;48.272;11.180;2023-08-17T09:37:30;11.95;;;7.55;;
46000;SDS011;72226;48.272;11.180;2023-08-17T09:39:56;12.45;;;7.28;;
46000;SDS011;72226;48.272;11.180;2023-08-17T09:42:22;7.57;;;6.88;;
46000;SDS011;72226;48.272;11.180;2023-08-17T09:44:51;9.00;;;8.18;;
46000;SDS011;72226;48.272;11.180;2023-08-17T09:47:17;8.60;;;7.75;;
46000;SDS011;72226;48.272;11.180;2023-08-17T09:49:52;9.63;;;7.95;;
46000;SDS011;72226;48.272;11.180;2023-08-17T09:52:19;8.80;;;6.93;;
46000;SDS011;72226;48.272;11.180;2023-08-17T09:54:45;7.15;;;6.55;;
46000;SDS011;72226;48.272;11.180;2023-08-17T09:57:12;10.10;;;8.73;;
46000;SDS011;72226;48.272;11.180;2023-08-17T09:59:38;7.45;;;6.75;;
46000;SDS011;72226;48.272;11.180;2023-08-17T10:02:03;7.45;;;6.63;;
46000;SDS011;72226;48.272;11.180;2023-08-17T10:04:41;6.63;;;6.13;;
46000;SDS011;72226;48.272;11.180;2023-08-17T10:07:08;8.30;;;6.82;;
46000;SDS011;72226;48.272;11.180;2023-08-17T10:09:36;7.88;;;7.22;;
46000;SDS011;72226;48.272;11.180;2023-08-17T10:12:12;6.10;;;5.50;;
46000;SDS011;72226;48.272;11.180;2023-08-17T10:14:42;7.65;;;6.95;;
46000;SDS011;72226;48.272;11.180;2023-08-17T10:17:14;6.72;;;6.07;;
46000;SDS011;72226;48.272;11.180;2023-08-17T10:22:39;6.05;;;5.45;;
46000;SDS011;72226;48.272;11.180;2023-08-17T10:25:15;9.77;;;7.93;;
46000;SDS011;72226;48.272;11.180;2023-08-17T10:27:41;6.65;;;6.05;;
46000;SDS011;72226;48.272;11.180;2023-08-17T10:30:10;10.50;;;6.32;;
46000;SDS011;72226;48.272;11.180;2023-08-17T10:32:36;7.82;;;7.13;;
46000;SDS011;72226;48.272;11.180;2023-08-17T10:35:02;7.15;;;6.45;;
46000;SDS011;72226;48.272;11.180;2023-08-17T10:37:29;10.85;;;8.32;;
46000;SDS011;72226;48.272;11.180;2023-08-17T10:39:55;7.55;;;6.85;;
46000;SDS011;72226;48.272;11.180;2023-08-17T10:42:36;7.72;;;6.60;;
46000;SDS011;72226;48.272;11.180;2023-08-17T10:45:24;7.97;;;7.18;;
46000;SDS011;72226;48.272;11.180;2023-08-17T10:47:47;7.93;;;7.13;;
46000;SDS011;72226;48.272;11.180;2023-08-17T10:55:15;6.90;;;6.18;;
46000;SDS011;72226;48.272;11.180;2023-08-17T10:57:44;7.72;;;6.57;;
46000;SDS011;72226;48.272;11.180;2023-08-17T11:02:51;9.63;;;6.80;;
46000;SDS011;72226;48.272;11.180;2023-08-17T11:07:59;7.00;;;6.07;;
46000;SDS011;72226;48.272;11.180;2023-08-17T11:12:52;8.20;;;7.38;;
46000;SDS011;72226;48.272;11.180;2023-08-17T11:15:21;6.78;;;6.18;;
46000;SDS011;72226;48.272;11.180;2023-08-17T11:17:47;7.13;;;6.47;;
46000;SDS011;72226;48.272;11.180;2023-08-17T11:20:13;7.35;;;6.75;;
46000;SDS011;72226;48.272;11.180;2023-08-17T11:22:38;7.60;;;6.72;;
46000;SDS011;72226;48.272;11.180;2023-08-17T11:25:04;8.07;;;7.05;;
46000;SDS011;72226;48.272;11.180;2023-08-17T11:27:30;7.25;;;6.72;;
46000;SDS011;72226;48.272;11.180;2023-08-17T11:29:56;6.28;;;5.78;;
46000;SDS011;72226;48.272;11.180;2023-08-17T11:32:21;6.32;;;5.78;;
46000;SDS011;72226;48.272;11.180;2023-08-17T11:34:47;8.90;;;6.53;;
46000;SDS011;72226;48.272;11.180;2023-08-17T11:37:12;5.88;;;5.45;;
46000;SDS011;72226;48.272;11.180;2023-08-17T11:39:37;7.28;;;6.18;;
46000;SDS011;72226;48.272;11.180;2023-08-17T11:42:03;5.97;;;5.47;;
46000;SDS011;72226;48.272;11.180;2023-08-17T11:44:29;7.10;;;6.55;;
46000;SDS011;72226;48.272;11.180;2023-08-17T11:46:54;6.95;;;6.35;;
46000;SDS011;72226;48.272;11.180;2023-08-17T11:49:20;89.47;;;14.52;;
46000;SDS011;72226;48.272;11.180;2023-08-17T11:51:45;12.70;;;7.57;;
46000;SDS011;72226;48.272;11.180;2023-08-17T11:54:11;9.98;;;7.15;;
46000;SDS011;72226;48.272;11.180;2023-08-17T11:56:36;7.75;;;6.32;;
46000;SDS011;72226;48.272;11.180;2023-08-17T11:59:12;6.68;;;6.05;;
46000;SDS011;72226;48.272;11.180;2023-08-17T12:01:39;7.10;;;6.38;;
46000;SDS011;72226;48.272;11.180;2023-08-17T12:04:05;7.10;;;6.50;;
46000;SDS011;72226;48.272;11.180;2023-08-17T12:06:31;8.48;;;6.35;;
46000;SDS011;72226;48.272;11.180;2023-08-17T12:08:57;5.90;;;5.32;;
46000;SDS011;72226;48.272;11.180;2023-08-17T12:11:25;7.47;;;6.70;;
46000;SDS011;72226;48.272;11.180;2023-08-17T12:13:51;5.63;;;4.93;;
46000;SDS011;72226;48.272;11.180;2023-08-17T12:16:18;5.43;;;4.93;;
46000;SDS011;72226;48.272;11.180;2023-08-17T12:18:45;4.82;;;4.53;;
46000;SDS011;72226;48.272;11.180;2023-08-17T12:21:14;5.80;;;5.22;;
46000;SDS011;72226;48.272;11.180;2023-08-17T12:23:40;6.53;;;5.78;;
46000;SDS011;72226;48.272;11.180;2023-08-17T12:26:08;8.05;;;5.63;;
46000;SDS011;72226;48.272;11.180;2023-08-17T12:28:33;5.30;;;4.80;;
46000;SDS011;72226;48.272;11.180;2023-08-17T12:30:59;7.18;;;5.03;;
46000;SDS011;72226;48.272;11.180;2023-08-17T12:33:25;6.88;;;5.63;;
46000;SDS011;72226;48.272;11.180;2023-08-17T12:35:51;6.28;;;5.03;;
46000;SDS011;72226;48.272;11.180;2023-08-17T12:38:17;5.97;;;5.28;;
46000;SDS011;72226;48.272;11.180;2023-08-17T12:40:42;4.88;;;4.47;;
46000;SDS011;72226;48.272;11.180;2023-08-17T12:43:07;5.40;;;5.00;;
46000;SDS011;72226;48.272;11.180;2023-08-17T12:45:33;7.25;;;6.65;;
46000;SDS011;72226;48.272;11.180;2023-08-17T12:47:59;7.28;;;6.55;;
46000;SDS011;72226;48.272;11.180;2023-08-17T12:50:25;6.60;;;5.95;;
46000;SDS011;72226;48.272;11.180;2023-08-17T12:52:50;6.78;;;6.25;;
46000;SDS011;72226;48.272;11.180;2023-08-17T12:55:15;6.15;;;5.65;;
46000;SDS011;72226;48.272;11.180;2023-08-17T12:57:41;6.20;;;5.70;;
46000;SDS011;72226;48.272;11.180;2023-08-17T13:00:06;5.30;;;4.78;;
46000;SDS011;72226;48.272;11.180;2023-08-17T13:02:32;6.22;;;5.47;;
46000;SDS011;72226;48.272;11.180;2023-08-17T13:04:58;5.95;;;5.45;;
46000;SDS011;72226;48.272;11.180;2023-08-17T13:07:23;6.10;;;5.40;;
46000;SDS011;72226;48.272;11.180;2023-08-17T13:09:49;5.13;;;4.72;;
46000;SDS011;72226;48.272;11.180;2023-08-17T13:12:14;5.70;;;5.28;;
46000;SDS011;72226;48.272;11.180;2023-08-17T13:14:39;5.18;;;4.72;;
46000;SDS011;72226;48.272;11.180;2023-08-17T13:17:05;6.30;;;4.38;;
46000;SDS011;72226;48.272;11.180;2023-08-17T13:19:30;5.22;;;4.78;;
46000;SDS011;72226;48.272;11.180;2023-08-17T13:21:56;5.57;;;4.10;;
46000;SDS011;72226;48.272;11.180;2023-08-17T13:24:21;4.90;;;3.90;;
46000;SDS011;72226;48.272;11.180;2023-08-17T13:26:46;5.22;;;4.70;;
46000;SDS011;72226;48.272;11.180;2023-08-17T13:29:12;8.75;;;5.00;;
46000;SDS011;72226;48.272;11.180;2023-08-17T13:31:37;4.43;;;3.95;;
46000;SDS011;72226;48.272;11.180;2023-08-17T13:34:02;4.57;;;4.22;;
46000;SDS011;72226;48.272;11.180;2023-08-17T13:36:28;3.70;;;3.30;;
46000;SDS011;72226;48.272;11.180;2023-08-17T13:38:53;3.97;;;3.45;;
46000;SDS011;72226;48.272;11.180;2023-08-17T13:41:19;3.78;;;3.47;;
46000;SDS011;72226;48.272;11.180;2023-08-17T13:43:44;3.70;;;3.40;;
46000;SDS011;72226;48.272;11.180;2023-08-17T13:46:10;4.80;;;4.13;;
46000;SDS011;72226;48.272;11.180;2023-08-17T13:48:35;4.07;;;3.67;;
46000;SDS011;72226;48.272;11.180;2023-08-17T13:51:00;5.10;;;3.83;;
46000;SDS011;72226;48.272;11.180;2023-08-17T13:53:26;4.80;;;4.43;;
46000;SDS011;72226;48.272;11.180;2023-08-17T13:55:51;3.42;;;3.22;;
46000;SDS011;72226;48.272;11.180;2023-08-17T13:58:16;4.63;;;4.13;;
46000;SDS011;72226;48.272;11.180;2023-08-17T14:00:42;4.10;;;3.03;;
46000;SDS011;72226;48.272;11.180;2023-08-17T14:03:07;4.20;;;3.80;;
46000;SDS011;72226;48.272;11.180;2023-08-17T14:05:33;4.18;;;3.88;;
46000;SDS011;72226;48.272;11.180;2023-08-17T14:07:58;4.50;;;3.72;;
46000;SDS011;72226;48.272;11.180;2023-08-17T14:10:24;5.63;;;3.88;;
46000;SDS011;72226;48.272;11.180;2023-08-17T14:12:49;5.65;;;4.47;;
46000;SDS011;72226;48.272;11.180;2023-08-17T14:15:15;4.43;;;4.05;;
46000;SDS011;72226;48.272;11.180;2023-08-17T14:17:40;3.53;;;3.22;;
46000;SDS011;72226;48.272;11.180;2023-08-17T14:20:06;4.10;;;3.78;;
46000;SDS011;72226;48.272;11.180;2023-08-17T14:22:31;4.22;;;3.83;;
46000;SDS011;72226;48.272;11.180;2023-08-17T14:24:57;7.90;;;4.43;;
46000;SDS011;72226;48.272;11.180;2023-08-17T14:27:23;5.22;;;3.92;;
46000;SDS011;72226;48.272;11.180;2023-08-17T14:29:48;4.65;;;3.42;;
46000;SDS011;72226;48.272;11.180;2023-08-17T14:32:13;5.15;;;3.20;;
46000;SDS011;72226;48.272;11.180;2023-08-17T14:34:39;2.78;;;2.58;;
46000;SDS011;72226;48.272;11.180;2023-08-17T14:37:04;3.65;;;3.35;;
46000;SDS011;72226;48.272;11.180;2023-08-17T14:39:29;4.13;;;3.72;;
46000;SDS011;72226;48.272;11.180;2023-08-17T14:41:55;5.25;;;3.35;;
46000;SDS011;72226;48.272;11.180;2023-08-17T14:44:20;3.50;;;3.17;;